sensor_id;sensor_type;location;lat;lon;timestamp;P1;durP1;ratioP1;P2;durP2;ratioP2
41343;SDS011;27089;50.022;7.604;2022-12-11T00:00:36;97.23;;;40.73;;
41343;SDS011;27089;50.022;7.604;2022-12-11T00:03:03;63.63;;;31.40;;
41343;SDS011;27089;50.022;7.604;2022-12-11T00:05:31;52.30;;;25.23;;
41343;SDS011;27089;50.022;7.604;2022-12-11T00:07:58;51.27;;;24.17;;
41343;SDS011;27089;50.022;7.604;2022-12-11T00:10:25;39.87;;;20.87;;
41343;SDS011;27089;50.022;7.604;2022-12-11T00:12:52;42.03;;;20.00;;
41343;SDS011;27089;50.022;7.604;2022-12-11T00:15:19;47.90;;;25.90;;
41343;SDS011;27089;50.022;7.604;2022-12-11T00:17:46;39.93;;;19.73;;
41343;SDS011;27089;50.022;7.604;2022-12-11T00:20:13;41.70;;;20.73;;
41343;SDS011;27089;50.022;7.604;2022-12-11T00:22:42;39.87;;;20.87;;
41343;SDS011;27089;50.022;7.604;2022-12-11T00:25:09;39.37;;;20.57;;
41343;SDS011;27089;50.022;7.604;2022-12-11T00:27:36;48.77;;;24.07;;
41343;SDS011;27089;50.022;7.604;2022-12-11T00:30:04;45.50;;;23.07;;
41343;SDS011;27089;50.022;7.604;2022-12-11T00:32:32;46.87;;;23.07;;
41343;SDS011;27089;50.022;7.604;2022-12-11T00:34:59;38.80;;;20.43;;
41343;SDS011;27089;50.022;7.604;2022-12-11T00:37:25;33.27;;;17.80;;
41343;SDS011;27089;50.022;7.604;2022-12-11T00:39:55;31.60;;;16.13;;
41343;SDS011;27089;50.022;7.604;2022-12-11T00:42:22;33.07;;;16.47;;
41343;SDS011;27089;50.022;7.604;2022-12-11T00:44:49;30.33;;;17.33;;
41343;SDS011;27089;50.022;7.604;2022-12-11T00:47:16;37.63;;;17.57;;
41343;SDS011;27089;50.022;7.604;2022-12-11T00:49:43;37.97;;;18.50;;
41343;SDS011;27089;50.022;7.604;2022-12-11T00:52:10;40.40;;;20.07;;
41343;SDS011;27089;50.022;7.604;2022-12-11T00:54:37;37.87;;;20.53;;
41343;SDS011;27089;50.022;7.604;2022-12-11T00:57:05;43.87;;;21.40;;
41343;SDS011;27089;50.022;7.604;2022-12-11T00:59:32;40.37;;;20.90;;
41343;SDS011;27089;50.022;7.604;2022-12-11T01:01:59;38.20;;;20.63;;
41343;SDS011;27089;50.022;7.604;2022-12-11T01:04:26;40.77;;;21.77;;
41343;SDS011;27089;50.022;7.604;2022-12-11T01:06:53;45.53;;;23.97;;
41343;SDS011;27089;50.022;7.604;2022-12-11T01:09:20;44.87;;;23.47;;
41343;SDS011;27089;50.022;7.604;2022-12-11T01:12:06;38.27;;;21.10;;
41343;SDS011;27089;50.022;7.604;2022-12-11T01:14:33;40.70;;;20.77;;
41343;SDS011;27089;50.022;7.604;2022-12-11T01:17:00;32.87;;;18.23;;
41343;SDS011;27089;50.022;7.604;2022-12-11T01:19:27;30.77;;;17.20;;
41343;SDS011;27089;50.022;7.604;2022-12-11T01:21:53;27.80;;;16.57;;
41343;SDS011;27089;50.022;7.604;2022-12-11T01:24:20;28.13;;;16.87;;
41343;SDS011;27089;50.022;7.604;2022-12-11T01:26:47;29.97;;;16.50;;
41343;SDS011;27089;50.022;7.604;2022-12-11T01:29:16;33.43;;;16.53;;
41343;SDS011;27089;50.022;7.604;2022-12-11T01:31:43;28.77;;;16.10;;
41343;SDS011;27089;50.022;7.604;2022-12-11T01:34:10;28.13;;;15.87;;
41343;SDS011;27089;50.022;7.604;2022-12-11T01:36:37;27.00;;;15.53;;
41343;SDS011;27089;50.022;7.604;2022-12-11T01:39:04;25.17;;;15.77;;
41343;SDS011;27089;50.022;7.604;2022-12-11T01:41:31;25.57;;;15.30;;
41343;SDS011;27089;50.022;7.604;2022-12-11T01:43:58;30.00;;;16.27;;
41343;SDS011;27089;50.022;7.604;2022-12-11T01:46:29;27.20;;;16.37;;
41343;SDS011;27089;50.022;7.604;2022-12-11T01:48:58;30.37;;;16.50;;
41343;SDS011;27089;50.022;7.604;2022-12-11T01:51:27;30.93;;;16.90;;
41343;SDS011;27089;50.022;7.604;2022-12-11T01:53:57;26.50;;;15.53;;
41343;SDS011;27089;50.022;7.604;2022-12-11T01:56:27;28.07;;;16.20;;
41343;SDS011;27089;50.022;7.604;2022-12-11T01:58:56;29.63;;;16.33;;
41343;SDS011;27089;50.022;7.604;2022-12-11T02:01:33;28.83;;;16.10;;
41343;SDS011;27089;50.022;7.604;2022-12-11T02:04:02;26.93;;;15.30;;
41343;SDS011;27089;50.022;7.604;2022-12-11T02:06:33;27.27;;;15.43;;
41343;SDS011;27089;50.022;7.604;2022-12-11T02:09:02;26.97;;;14.17;;
41343;SDS011;27089;50.022;7.604;2022-12-11T02:11:34;25.67;;;14.70;;
41343;SDS011;27089;50.022;7.604;2022-12-11T02:14:10;26.67;;;14.97;;
41343;SDS011;27089;50.022;7.604;2022-12-11T02:16:44;29.00;;;14.13;;
41343;SDS011;27089;50.022;7.604;2022-12-11T02:19:17;28.20;;;14.80;;
41343;SDS011;27089;50.022;7.604;2022-12-11T02:21:56;24.50;;;14.40;;
41343;SDS011;27089;50.022;7.604;2022-12-11T02:24:31;27.50;;;15.03;;
41343;SDS011;27089;50.022;7.604;2022-12-11T02:27:20;25.87;;;15.07;;
41343;SDS011;27089;50.022;7.604;2022-12-11T02:29:56;28.37;;;15.07;;
41343;SDS011;27089;50.022;7.604;2022-12-11T02:32:29;27.73;;;15.70;;
41343;SDS011;27089;50.022;7.604;2022-12-11T02:35:04;28.30;;;15.43;;
41343;SDS011;27089;50.022;7.604;2022-12-11T02:37:36;28.90;;;16.00;;
41343;SDS011;27089;50.022;7.604;2022-12-11T02:40:06;29.20;;;16.47;;
41343;SDS011;27089;50.022;7.604;2022-12-11T02:42:36;28.87;;;16.13;;
41343;SDS011;27089;50.022;7.604;2022-12-11T02:45:08;30.30;;;17.20;;
41343;SDS011;27089;50.022;7.604;2022-12-11T02:47:37;28.73;;;16.83;;
41343;SDS011;27089;50.022;7.604;2022-12-11T02:50:06;29.13;;;16.87;;
41343;SDS011;27089;50.022;7.604;2022-12-11T02:52:38;29.30;;;16.90;;
41343;SDS011;27089;50.022;7.604;2022-12-11T02:55:08;26.80;;;15.30;;
41343;SDS011;27089;50.022;7.604;2022-12-11T02:57:39;27.20;;;15.77;;
41343;SDS011;27089;50.022;7.604;2022-12-11T03:00:12;27.13;;;15.47;;
41343;SDS011;27089;50.022;7.604;2022-12-11T03:02:40;27.47;;;15.73;;
41343;SDS011;27089;50.022;7.604;2022-12-11T03:05:09;31.53;;;16.43;;
41343;SDS011;27089;50.022;7.604;2022-12-11T03:07:38;26.83;;;16.20;;
41343;SDS011;27089;50.022;7.604;2022-12-11T03:10:09;28.97;;;17.20;;
41343;SDS011;27089;50.022;7.604;2022-12-11T03:12:41;27.27;;;15.57;;
41343;SDS011;27089;50.022;7.604;2022-12-11T03:15:12;29.43;;;17.17;;
41343;SDS011;27089;50.022;7.604;2022-12-11T03:17:43;31.17;;;16.67;;
41343;SDS011;27089;50.022;7.604;2022-12-11T03:20:21;25.03;;;15.07;;
41343;SDS011;27089;50.022;7.604;2022-12-11T03:22:56;30.77;;;16.33;;
41343;SDS011;27089;50.022;7.604;2022-12-11T03:25:28;31.77;;;16.70;;
41343;SDS011;27089;50.022;7.604;2022-12-11T03:28:02;27.90;;;16.30;;
41343;SDS011;27089;50.022;7.604;2022-12-11T03:30:35;32.70;;;18.13;;
41343;SDS011;27089;50.022;7.604;2022-12-11T03:33:04;32.93;;;18.53;;
41343;SDS011;27089;50.022;7.604;2022-12-11T03:35:36;28.27;;;15.30;;
41343;SDS011;27089;50.022;7.604;2022-12-11T03:38:07;29.70;;;15.50;;
41343;SDS011;27089;50.022;7.604;2022-12-11T03:40:36;27.87;;;17.17;;
41343;SDS011;27089;50.022;7.604;2022-12-11T03:43:06;29.57;;;17.50;;
41343;SDS011;27089;50.022;7.604;2022-12-11T03:45:37;30.80;;;17.30;;
41343;SDS011;27089;50.022;7.604;2022-12-11T03:48:05;31.17;;;16.53;;
41343;SDS011;27089;50.022;7.604;2022-12-11T03:50:34;25.50;;;15.30;;
41343;SDS011;27089;50.022;7.604;2022-12-11T03:53:01;28.87;;;16.10;;
41343;SDS011;27089;50.022;7.604;2022-12-11T03:55:30;29.70;;;16.63;;
41343;SDS011;27089;50.022;7.604;2022-12-11T03:57:59;25.70;;;15.17;;
41343;SDS011;27089;50.022;7.604;2022-12-11T04:00:26;27.17;;;15.10;;
41343;SDS011;27089;50.022;7.604;2022-12-11T04:02:55;24.87;;;13.80;;
41343;SDS011;27089;50.022;7.604;2022-12-11T04:05:42;26.93;;;14.87;;
41343;SDS011;27089;50.022;7.604;2022-12-11T04:08:11;25.43;;;14.47;;
41343;SDS011;27089;50.022;7.604;2022-12-11T04:10:39;25.50;;;15.23;;
41343;SDS011;27089;50.022;7.604;2022-12-11T04:13:06;26.50;;;15.33;;
41343;SDS011;27089;50.022;7.604;2022-12-11T04:15:34;28.77;;;15.50;;
41343;SDS011;27089;50.022;7.604;2022-12-11T04:18:02;26.80;;;15.63;;
41343;SDS011;27089;50.022;7.604;2022-12-11T04:20:47;26.57;;;15.67;;
41343;SDS011;27089;50.022;7.604;2022-12-11T04:23:46;25.77;;;14.70;;
41343;SDS011;27089;50.022;7.604;2022-12-11T04:26:30;25.37;;;14.77;;
41343;SDS011;27089;50.022;7.604;2022-12-11T04:28:57;25.80;;;15.47;;
41343;SDS011;27089;50.022;7.604;2022-12-11T04:31:24;28.50;;;15.83;;
41343;SDS011;27089;50.022;7.604;2022-12-11T04:33:52;24.00;;;14.17;;
41343;SDS011;27089;50.022;7.604;2022-12-11T04:36:19;28.73;;;15.73;;
41343;SDS011;27089;50.022;7.604;2022-12-11T04:38:46;24.73;;;14.43;;
41343;SDS011;27089;50.022;7.604;2022-12-11T04:41:13;25.67;;;14.63;;
41343;SDS011;27089;50.022;7.604;2022-12-11T04:43:41;28.10;;;14.43;;
41343;SDS011;27089;50.022;7.604;2022-12-11T04:46:10;26.20;;;15.30;;
41343;SDS011;27089;50.022;7.604;2022-12-11T04:48:38;28.50;;;15.73;;
41343;SDS011;27089;50.022;7.604;2022-12-11T04:51:07;29.23;;;16.17;;
41343;SDS011;27089;50.022;7.604;2022-12-11T04:53:35;28.73;;;16.17;;
41343;SDS011;27089;50.022;7.604;2022-12-11T04:56:03;27.03;;;15.67;;
41343;SDS011;27089;50.022;7.604;2022-12-11T04:58:30;30.00;;;16.60;;
41343;SDS011;27089;50.022;7.604;2022-12-11T05:00:57;30.50;;;15.97;;
41343;SDS011;27089;50.022;7.604;2022-12-11T05:03:24;28.10;;;15.90;;
41343;SDS011;27089;50.022;7.604;2022-12-11T05:05:52;26.90;;;15.77;;
41343;SDS011;27089;50.022;7.604;2022-12-11T05:08:20;25.73;;;14.67;;
41343;SDS011;27089;50.022;7.604;2022-12-11T05:10:53;28.37;;;16.60;;
41343;SDS011;27089;50.022;7.604;2022-12-11T05:13:21;27.13;;;16.03;;
41343;SDS011;27089;50.022;7.604;2022-12-11T05:15:48;28.73;;;15.43;;
41343;SDS011;27089;50.022;7.604;2022-12-11T05:18:15;27.23;;;15.30;;
41343;SDS011;27089;50.022;7.604;2022-12-11T05:20:42;31.53;;;16.27;;
41343;SDS011;27089;50.022;7.604;2022-12-11T05:23:09;28.50;;;15.43;;
41343;SDS011;27089;50.022;7.604;2022-12-11T05:25:38;32.30;;;17.53;;
41343;SDS011;27089;50.022;7.604;2022-12-11T05:28:05;34.37;;;18.63;;
41343;SDS011;27089;50.022;7.604;2022-12-11T05:30:32;34.97;;;18.23;;
41343;SDS011;27089;50.022;7.604;2022-12-11T05:32:59;30.20;;;17.07;;
41343;SDS011;27089;50.022;7.604;2022-12-11T05:35:26;31.53;;;17.50;;
41343;SDS011;27089;50.022;7.604;2022-12-11T05:37:53;28.00;;;15.50;;
41343;SDS011;27089;50.022;7.604;2022-12-11T05:40:20;36.87;;;19.60;;
41343;SDS011;27089;50.022;7.604;2022-12-11T05:42:48;33.50;;;17.20;;
41343;SDS011;27089;50.022;7.604;2022-12-11T05:45:15;34.50;;;19.07;;
41343;SDS011;27089;50.022;7.604;2022-12-11T05:47:42;32.00;;;19.03;;
41343;SDS011;27089;50.022;7.604;2022-12-11T05:50:09;31.40;;;19.07;;
41343;SDS011;27089;50.022;7.604;2022-12-11T05:52:36;37.23;;;19.53;;
41343;SDS011;27089;50.022;7.604;2022-12-11T05:55:04;32.17;;;17.20;;
41343;SDS011;27089;50.022;7.604;2022-12-11T05:57:31;28.70;;;16.27;;
41343;SDS011;27089;50.022;7.604;2022-12-11T05:59:59;28.87;;;16.63;;
41343;SDS011;27089;50.022;7.604;2022-12-11T06:02:26;28.30;;;16.77;;
41343;SDS011;27089;50.022;7.604;2022-12-11T06:04:53;56.67;;;26.60;;
41343;SDS011;27089;50.022;7.604;2022-12-11T06:07:20;39.40;;;22.20;;
41343;SDS011;27089;50.022;7.604;2022-12-11T06:09:47;31.10;;;19.00;;
41343;SDS011;27089;50.022;7.604;2022-12-11T06:12:14;30.67;;;16.57;;
41343;SDS011;27089;50.022;7.604;2022-12-11T06:14:41;31.77;;;16.87;;
41343;SDS011;27089;50.022;7.604;2022-12-11T06:17:09;25.07;;;14.30;;
41343;SDS011;27089;50.022;7.604;2022-12-11T06:22:03;28.63;;;16.33;;
41343;SDS011;27089;50.022;7.604;2022-12-11T06:24:30;27.57;;;14.80;;
41343;SDS011;27089;50.022;7.604;2022-12-11T06:26:57;28.17;;;15.07;;
41343;SDS011;27089;50.022;7.604;2022-12-11T06:29:24;28.67;;;16.13;;
41343;SDS011;27089;50.022;7.604;2022-12-11T06:31:51;26.33;;;14.57;;
41343;SDS011;27089;50.022;7.604;2022-12-11T06:34:19;29.57;;;15.07;;
41343;SDS011;27089;50.022;7.604;2022-12-11T06:36:47;30.43;;;16.00;;
41343;SDS011;27089;50.022;7.604;2022-12-11T06:39:14;28.57;;;15.27;;
41343;SDS011;27089;50.022;7.604;2022-12-11T06:41:41;31.63;;;18.00;;
41343;SDS011;27089;50.022;7.604;2022-12-11T06:44:08;26.63;;;14.70;;
41343;SDS011;27089;50.022;7.604;2022-12-11T06:46:35;28.77;;;15.43;;
41343;SDS011;27089;50.022;7.604;2022-12-11T06:49:01;29.97;;;15.53;;
41343;SDS011;27089;50.022;7.604;2022-12-11T06:51:30;30.10;;;16.33;;
41343;SDS011;27089;50.022;7.604;2022-12-11T06:53:57;29.70;;;17.40;;
41343;SDS011;27089;50.022;7.604;2022-12-11T06:56:24;29.60;;;15.73;;
41343;SDS011;27089;50.022;7.604;2022-12-11T06:58:51;35.90;;;17.30;;
41343;SDS011;27089;50.022;7.604;2022-12-11T07:01:20;29.33;;;16.90;;
41343;SDS011;27089;50.022;7.604;2022-12-11T07:03:51;28.23;;;17.33;;
41343;SDS011;27089;50.022;7.604;2022-12-11T07:06:18;29.73;;;16.50;;
41343;SDS011;27089;50.022;7.604;2022-12-11T07:08:46;29.73;;;16.60;;
41343;SDS011;27089;50.022;7.604;2022-12-11T07:11:14;33.83;;;19.47;;
41343;SDS011;27089;50.022;7.604;2022-12-11T07:13:42;28.13;;;15.67;;
41343;SDS011;27089;50.022;7.604;2022-12-11T07:16:10;29.27;;;16.03;;
41343;SDS011;27089;50.022;7.604;2022-12-11T07:18:38;28.17;;;15.97;;
41343;SDS011;27089;50.022;7.604;2022-12-11T07:21:07;30.40;;;14.53;;
41343;SDS011;27089;50.022;7.604;2022-12-11T07:23:35;30.33;;;16.73;;
41343;SDS011;27089;50.022;7.604;2022-12-11T07:26:04;26.93;;;14.87;;
41343;SDS011;27089;50.022;7.604;2022-12-11T07:28:33;48.07;;;25.47;;
41343;SDS011;27089;50.022;7.604;2022-12-11T07:31:03;41.03;;;22.20;;
41343;SDS011;27089;50.022;7.604;2022-12-11T07:33:31;38.97;;;20.70;;
41343;SDS011;27089;50.022;7.604;2022-12-11T07:35:59;34.30;;;19.27;;
41343;SDS011;27089;50.022;7.604;2022-12-11T07:38:27;32.43;;;18.40;;
41343;SDS011;27089;50.022;7.604;2022-12-11T07:40:54;30.83;;;17.33;;
41343;SDS011;27089;50.022;7.604;2022-12-11T07:43:23;28.27;;;15.43;;
41343;SDS011;27089;50.022;7.604;2022-12-11T07:45:50;27.97;;;15.70;;
41343;SDS011;27089;50.022;7.604;2022-12-11T07:48:17;33.97;;;18.60;;
41343;SDS011;27089;50.022;7.604;2022-12-11T07:50:44;30.47;;;17.27;;
41343;SDS011;27089;50.022;7.604;2022-12-11T07:53:11;26.90;;;16.23;;
41343;SDS011;27089;50.022;7.604;2022-12-11T07:55:38;25.33;;;15.23;;
41343;SDS011;27089;50.022;7.604;2022-12-11T07:58:05;26.47;;;15.60;;
41343;SDS011;27089;50.022;7.604;2022-12-11T08:00:34;25.87;;;15.03;;
41343;SDS011;27089;50.022;7.604;2022-12-11T08:03:01;27.10;;;15.23;;
41343;SDS011;27089;50.022;7.604;2022-12-11T08:05:28;26.37;;;14.60;;
41343;SDS011;27089;50.022;7.604;2022-12-11T08:07:54;28.47;;;15.23;;
41343;SDS011;27089;50.022;7.604;2022-12-11T08:10:22;27.13;;;14.97;;
41343;SDS011;27089;50.022;7.604;2022-12-11T08:12:48;35.50;;;18.67;;
41343;SDS011;27089;50.022;7.604;2022-12-11T08:15:16;44.70;;;25.13;;
41343;SDS011;27089;50.022;7.604;2022-12-11T08:17:44;44.10;;;25.27;;
41343;SDS011;27089;50.022;7.604;2022-12-11T08:20:11;35.17;;;20.10;;
41343;SDS011;27089;50.022;7.604;2022-12-11T08:22:38;36.60;;;21.37;;
41343;SDS011;27089;50.022;7.604;2022-12-11T08:25:05;38.03;;;23.30;;
41343;SDS011;27089;50.022;7.604;2022-12-11T08:27:33;42.60;;;24.67;;
41343;SDS011;27089;50.022;7.604;2022-12-11T08:30:00;34.10;;;18.53;;
41343;SDS011;27089;50.022;7.604;2022-12-11T08:32:27;24.70;;;14.50;;
41343;SDS011;27089;50.022;7.604;2022-12-11T08:34:56;25.93;;;14.80;;
41343;SDS011;27089;50.022;7.604;2022-12-11T08:37:23;25.57;;;14.03;;
41343;SDS011;27089;50.022;7.604;2022-12-11T08:39:50;25.07;;;14.03;;
41343;SDS011;27089;50.022;7.604;2022-12-11T08:42:17;25.60;;;15.03;;
41343;SDS011;27089;50.022;7.604;2022-12-11T08:44:44;28.00;;;14.93;;
41343;SDS011;27089;50.022;7.604;2022-12-11T08:47:11;26.40;;;14.77;;
41343;SDS011;27089;50.022;7.604;2022-12-11T08:49:39;24.57;;;13.97;;
41343;SDS011;27089;50.022;7.604;2022-12-11T08:52:07;26.53;;;14.83;;
41343;SDS011;27089;50.022;7.604;2022-12-11T08:54:35;28.20;;;15.87;;
41343;SDS011;27089;50.022;7.604;2022-12-11T08:57:02;25.20;;;15.13;;
41343;SDS011;27089;50.022;7.604;2022-12-11T08:59:29;26.90;;;14.67;;
41343;SDS011;27089;50.022;7.604;2022-12-11T09:01:56;25.90;;;14.20;;
41343;SDS011;27089;50.022;7.604;2022-12-11T09:04:23;25.13;;;14.73;;
41343;SDS011;27089;50.022;7.604;2022-12-11T09:06:50;25.67;;;14.03;;
41343;SDS011;27089;50.022;7.604;2022-12-11T09:09:19;25.00;;;13.93;;
41343;SDS011;27089;50.022;7.604;2022-12-11T09:11:46;26.93;;;13.90;;
41343;SDS011;27089;50.022;7.604;2022-12-11T09:14:13;27.00;;;14.17;;
41343;SDS011;27089;50.022;7.604;2022-12-11T09:16:41;24.17;;;14.40;;
41343;SDS011;27089;50.022;7.604;2022-12-11T09:19:10;26.17;;;14.50;;
41343;SDS011;27089;50.022;7.604;2022-12-11T09:21:40;25.17;;;14.13;;
41343;SDS011;27089;50.022;7.604;2022-12-11T09:24:09;26.40;;;14.80;;
41343;SDS011;27089;50.022;7.604;2022-12-11T09:26:38;24.63;;;13.40;;
41343;SDS011;27089;50.022;7.604;2022-12-11T09:29:06;23.63;;;12.87;;
41343;SDS011;27089;50.022;7.604;2022-12-11T09:31:34;23.93;;;13.63;;
41343;SDS011;27089;50.022;7.604;2022-12-11T09:34:04;21.73;;;12.13;;
41343;SDS011;27089;50.022;7.604;2022-12-11T09:36:34;32.23;;;19.80;;
41343;SDS011;27089;50.022;7.604;2022-12-11T09:39:06;28.57;;;16.13;;
41343;SDS011;27089;50.022;7.604;2022-12-11T09:41:49;29.53;;;17.23;;
41343;SDS011;27089;50.022;7.604;2022-12-11T09:44:29;27.00;;;15.07;;
41343;SDS011;27089;50.022;7.604;2022-12-11T09:46:59;30.63;;;16.30;;
41343;SDS011;27089;50.022;7.604;2022-12-11T09:49:30;24.87;;;13.93;;
41343;SDS011;27089;50.022;7.604;2022-12-11T09:52:05;25.27;;;14.33;;
41343;SDS011;27089;50.022;7.604;2022-12-11T09:54:39;32.13;;;17.10;;
41343;SDS011;27089;50.022;7.604;2022-12-11T09:57:16;25.07;;;14.30;;
41343;SDS011;27089;50.022;7.604;2022-12-11T09:59:58;32.73;;;18.67;;
41343;SDS011;27089;50.022;7.604;2022-12-11T10:02:37;26.20;;;14.93;;
41343;SDS011;27089;50.022;7.604;2022-12-11T10:05:16;30.07;;;17.80;;
41343;SDS011;27089;50.022;7.604;2022-12-11T10:07:55;25.20;;;13.37;;
41343;SDS011;27089;50.022;7.604;2022-12-11T10:10:30;26.00;;;14.40;;
41343;SDS011;27089;50.022;7.604;2022-12-11T10:13:09;25.77;;;14.60;;
41343;SDS011;27089;50.022;7.604;2022-12-11T10:15:42;26.23;;;14.57;;
41343;SDS011;27089;50.022;7.604;2022-12-11T10:18:17;31.27;;;17.97;;
41343;SDS011;27089;50.022;7.604;2022-12-11T10:20:47;30.47;;;19.33;;
41343;SDS011;27089;50.022;7.604;2022-12-11T10:23:18;26.67;;;15.37;;
41343;SDS011;27089;50.022;7.604;2022-12-11T10:25:48;22.60;;;12.53;;
41343;SDS011;27089;50.022;7.604;2022-12-11T10:28:20;25.70;;;15.30;;
41343;SDS011;27089;50.022;7.604;2022-12-11T10:30:48;26.57;;;14.00;;
41343;SDS011;27089;50.022;7.604;2022-12-11T10:33:25;27.53;;;15.00;;
41343;SDS011;27089;50.022;7.604;2022-12-11T10:35:59;23.73;;;14.83;;
41343;SDS011;27089;50.022;7.604;2022-12-11T10:38:27;22.90;;;14.20;;
41343;SDS011;27089;50.022;7.604;2022-12-11T10:40:57;27.77;;;14.63;;
41343;SDS011;27089;50.022;7.604;2022-12-11T10:43:34;27.33;;;16.47;;
41343;SDS011;27089;50.022;7.604;2022-12-11T10:46:04;25.20;;;14.50;;
41343;SDS011;27089;50.022;7.604;2022-12-11T10:48:32;26.70;;;16.57;;
41343;SDS011;27089;50.022;7.604;2022-12-11T10:51:00;25.33;;;14.90;;
41343;SDS011;27089;50.022;7.604;2022-12-11T10:53:30;23.13;;;13.37;;
41343;SDS011;27089;50.022;7.604;2022-12-11T10:55:58;21.37;;;13.47;;
41343;SDS011;27089;50.022;7.604;2022-12-11T10:58:27;23.83;;;14.30;;
41343;SDS011;27089;50.022;7.604;2022-12-11T11:01:06;21.13;;;13.30;;
41343;SDS011;27089;50.022;7.604;2022-12-11T11:03:39;20.80;;;12.37;;
41343;SDS011;27089;50.022;7.604;2022-12-11T11:06:19;20.23;;;11.83;;
41343;SDS011;27089;50.022;7.604;2022-12-11T11:08:48;17.83;;;10.97;;
41343;SDS011;27089;50.022;7.604;2022-12-11T11:11:19;21.20;;;10.70;;
41343;SDS011;27089;50.022;7.604;2022-12-11T11:13:49;17.30;;;9.97;;
41343;SDS011;27089;50.022;7.604;2022-12-11T11:16:18;17.93;;;10.17;;
41343;SDS011;27089;50.022;7.604;2022-12-11T11:18:50;18.27;;;10.87;;
41343;SDS011;27089;50.022;7.604;2022-12-11T11:21:19;18.40;;;10.83;;
41343;SDS011;27089;50.022;7.604;2022-12-11T11:23:48;18.03;;;10.57;;
41343;SDS011;27089;50.022;7.604;2022-12-11T11:26:15;17.67;;;10.70;;
41343;SDS011;27089;50.022;7.604;2022-12-11T11:28:46;16.67;;;10.30;;
41343;SDS011;27089;50.022;7.604;2022-12-11T11:31:14;17.00;;;10.43;;
41343;SDS011;27089;50.022;7.604;2022-12-11T11:33:46;18.37;;;10.50;;
41343;SDS011;27089;50.022;7.604;2022-12-11T11:36:21;18.73;;;11.00;;
41343;SDS011;27089;50.022;7.604;2022-12-11T11:38:53;18.57;;;11.50;;
41343;SDS011;27089;50.022;7.604;2022-12-11T11:41:33;19.70;;;13.17;;
41343;SDS011;27089;50.022;7.604;2022-12-11T11:44:04;24.07;;;13.20;;
41343;SDS011;27089;50.022;7.604;2022-12-11T11:46:36;19.60;;;11.40;;
41343;SDS011;27089;50.022;7.604;2022-12-11T11:49:12;17.00;;;10.47;;
41343;SDS011;27089;50.022;7.604;2022-12-11T11:51:43;19.87;;;10.47;;
41343;SDS011;27089;50.022;7.604;2022-12-11T11:54:17;15.47;;;9.90;;
41343;SDS011;27089;50.022;7.604;2022-12-11T11:56:51;20.87;;;12.57;;
41343;SDS011;27089;50.022;7.604;2022-12-11T11:59:22;28.07;;;18.00;;
41343;SDS011;27089;50.022;7.604;2022-12-11T12:01:54;58.47;;;32.50;;
41343;SDS011;27089;50.022;7.604;2022-12-11T12:04:24;58.67;;;39.73;;
41343;SDS011;27089;50.022;7.604;2022-12-11T12:07:10;22.70;;;12.57;;
41343;SDS011;27089;50.022;7.604;2022-12-11T12:09:50;16.00;;;11.83;;
41343;SDS011;27089;50.022;7.604;2022-12-11T12:12:28;17.93;;;11.27;;
41343;SDS011;27089;50.022;7.604;2022-12-11T12:18:02;28.50;;;16.53;;
41343;SDS011;27089;50.022;7.604;2022-12-11T12:20:42;16.90;;;11.27;;
41343;SDS011;27089;50.022;7.604;2022-12-11T12:23:28;16.07;;;10.43;;
41343;SDS011;27089;50.022;7.604;2022-12-11T12:26:10;19.73;;;11.03;;
41343;SDS011;27089;50.022;7.604;2022-12-11T12:28:43;15.70;;;8.90;;
41343;SDS011;27089;50.022;7.604;2022-12-11T12:31:26;14.23;;;9.00;;
41343;SDS011;27089;50.022;7.604;2022-12-11T12:34:04;16.23;;;9.17;;
41343;SDS011;27089;50.022;7.604;2022-12-11T12:36:40;16.13;;;9.77;;
41343;SDS011;27089;50.022;7.604;2022-12-11T12:39:16;15.10;;;9.33;;
41343;SDS011;27089;50.022;7.604;2022-12-11T12:41:55;14.63;;;8.87;;
41343;SDS011;27089;50.022;7.604;2022-12-11T12:44:28;14.93;;;9.30;;
41343;SDS011;27089;50.022;7.604;2022-12-11T12:47:01;15.73;;;8.80;;
41343;SDS011;27089;50.022;7.604;2022-12-11T12:49:33;12.53;;;7.80;;
41343;SDS011;27089;50.022;7.604;2022-12-11T12:52:05;12.70;;;8.43;;
41343;SDS011;27089;50.022;7.604;2022-12-11T12:54:38;22.40;;;13.73;;
41343;SDS011;27089;50.022;7.604;2022-12-11T12:57:07;16.90;;;11.37;;
41343;SDS011;27089;50.022;7.604;2022-12-11T12:59:35;15.73;;;9.33;;
41343;SDS011;27089;50.022;7.604;2022-12-11T13:02:02;12.77;;;8.53;;
41343;SDS011;27089;50.022;7.604;2022-12-11T13:04:38;17.73;;;9.77;;
41343;SDS011;27089;50.022;7.604;2022-12-11T13:07:11;18.27;;;10.90;;
41343;SDS011;27089;50.022;7.604;2022-12-11T13:09:42;13.97;;;8.77;;
41343;SDS011;27089;50.022;7.604;2022-12-11T13:12:28;13.50;;;9.00;;
41343;SDS011;27089;50.022;7.604;2022-12-11T13:14:58;14.50;;;9.00;;
41343;SDS011;27089;50.022;7.604;2022-12-11T13:17:33;14.33;;;8.87;;
41343;SDS011;27089;50.022;7.604;2022-12-11T13:20:10;14.23;;;8.83;;
41343;SDS011;27089;50.022;7.604;2022-12-11T13:22:48;13.40;;;8.20;;
41343;SDS011;27089;50.022;7.604;2022-12-11T13:25:21;13.80;;;9.00;;
41343;SDS011;27089;50.022;7.604;2022-12-11T13:27:50;15.37;;;9.97;;
41343;SDS011;27089;50.022;7.604;2022-12-11T13:30:22;16.37;;;8.97;;
41343;SDS011;27089;50.022;7.604;2022-12-11T13:32:55;14.07;;;9.37;;
41343;SDS011;27089;50.022;7.604;2022-12-11T13:35:27;15.20;;;8.80;;
41343;SDS011;27089;50.022;7.604;2022-12-11T13:37:58;13.73;;;8.10;;
41343;SDS011;27089;50.022;7.604;2022-12-11T13:40:33;14.87;;;8.40;;
41343;SDS011;27089;50.022;7.604;2022-12-11T13:43:06;12.97;;;8.60;;
41343;SDS011;27089;50.022;7.604;2022-12-11T13:45:43;16.13;;;9.10;;
41343;SDS011;27089;50.022;7.604;2022-12-11T13:48:18;15.70;;;11.27;;
41343;SDS011;27089;50.022;7.604;2022-12-11T13:50:49;16.73;;;10.77;;
41343;SDS011;27089;50.022;7.604;2022-12-11T13:53:19;13.97;;;9.37;;
41343;SDS011;27089;50.022;7.604;2022-12-11T13:55:54;13.37;;;9.13;;
41343;SDS011;27089;50.022;7.604;2022-12-11T13:58:23;13.23;;;7.83;;
41343;SDS011;27089;50.022;7.604;2022-12-11T14:00:52;12.50;;;7.37;;
41343;SDS011;27089;50.022;7.604;2022-12-11T14:03:25;12.80;;;7.83;;
41343;SDS011;27089;50.022;7.604;2022-12-11T14:05:52;15.17;;;8.53;;
41343;SDS011;27089;50.022;7.604;2022-12-11T14:08:23;14.33;;;8.27;;
41343;SDS011;27089;50.022;7.604;2022-12-11T14:10:56;13.80;;;7.60;;
41343;SDS011;27089;50.022;7.604;2022-12-11T14:13:24;16.07;;;8.77;;
41343;SDS011;27089;50.022;7.604;2022-12-11T14:15:56;16.00;;;9.70;;
41343;SDS011;27089;50.022;7.604;2022-12-11T14:18:24;15.87;;;10.03;;
41343;SDS011;27089;50.022;7.604;2022-12-11T14:20:54;22.17;;;15.13;;
41343;SDS011;27089;50.022;7.604;2022-12-11T14:23:24;29.90;;;19.53;;
41343;SDS011;27089;50.022;7.604;2022-12-11T14:25:53;17.17;;;10.47;;
41343;SDS011;27089;50.022;7.604;2022-12-11T14:28:24;15.83;;;9.20;;
41343;SDS011;27089;50.022;7.604;2022-12-11T14:30:54;14.73;;;8.93;;
41343;SDS011;27089;50.022;7.604;2022-12-11T14:33:24;23.67;;;13.53;;
41343;SDS011;27089;50.022;7.604;2022-12-11T14:35:56;18.47;;;11.67;;
41343;SDS011;27089;50.022;7.604;2022-12-11T14:38:26;16.47;;;10.60;;
41343;SDS011;27089;50.022;7.604;2022-12-11T14:40:56;20.47;;;11.27;;
41343;SDS011;27089;50.022;7.604;2022-12-11T14:43:27;16.33;;;10.10;;
41343;SDS011;27089;50.022;7.604;2022-12-11T14:45:56;13.27;;;8.60;;